Blooming Grove, Texas
Current Conditions -  °F | °C
As of 8:53 PM on Sunday 21 Dec 2014 (Local Time) from KCRS Reporting Station
Overcast Overcast  
Wind Chill: 53°   Ceiling: 1600
Heat Index: 53°   Visibility: 10mi
Dew Point: 47°   Wind: 13mph
Humidity: 80%   Direction: 160°SSE
Pressure: 29.85"   Gusts: NA
Location:  32.09°N, 96.72°W
Report Text: KCRS 220253Z AUTO 16011KT 10SM BKN016 OVC029 12/08 A2985 RMK AO2 SLP107 T01170083 58018
Loading
Personal Weather Stations






























Interactive Weather Map New forecast layout! Learn more

10-Day Weather Forecast

Advertisements
Track Severe Weather on mobile